Skip Navigation Links
NOAA logo - Click to go to the NOAA homepage
NOAA's National Weather Service
Alaska Aviation Weather Unit
  NWS logo - Click to go to the NWS homepage
Left Navbar Graphic     18 AKDT = 02 GMT

   
NOAA is celebrating 200 years of science, service, and stewardship. Visit the NOAA 200th celebration Web site to learn more.
USA.gov is the U.S. Government's official Web portal to all Federal, state and local government Web resources and services.
Facebook
NWS on Facebook

Important Change Regarding the AAWU Web Presence

 

Over the last several months, the AAWU has been working to navigate its webpages to a nationally supported server. Security, as well as other needs, have necessitated the change.  In the process, we have made an effort to enhance the functionality of our website, as well as some of our products. As of June 20, 2017, aawu.arh.noaa.gov will be discontinued. The new AAWU web address is weather.gov/aawu. It is now live and will run in-parallel with the old site until it is discontinued. Please send any feedback or questions regarding the new webpages to nws.ar.aawu.webauthors@noaa.gov.  Thank you for your patience during this time of transition.
AAWU Home :: Display TAF Add Bookmark
SPECI PAPB 242049Z AUTO 26015KT 10SM SCT015 OVC032 05/03 A2987 RMK
 AO2 TSNO=

PAPB 242053Z AUTO 26017KT 10SM SCT015 OVC032 05/03 A2987 RMK AO2
     SLP101 60000 T00500028 51015 TSNO=

SPECI PAPB 242131Z AUTO 25018G22KT 10SM SCT014 BKN020 BKN065 06/02 A2988
     RMK AO2 T00560022 TSNO=

SPECI PAPB 242142Z AUTO 25015KT 10SM SCT016 BKN090 BKN100 05/03 A2988
     RMK AO2 T00500028 TSNO=

METAR PAPB 242153Z AUTO 25014KT 10SM FEW015 FEW090 SCT100 06/03 A2989
     RMK AO2 SLP109 T00560028 TSNO=

METAR PAPB 242253Z AUTO 24019KT 10SM FEW022 SCT034 BKN080 06/02
 A2989 RMK AO2 PK WND 25027/2233 SLP111 T00560017 TSNO=

SPECI PAPB 242317Z AUTO 25017KT 10SM SCT019 BKN026 OVC035 05/02 A2990
     RMK AO2 PK WND 25032/2301 RAB03E12 P0000 T00500022 TSNO=

PAPB 242350Z AUTO 26016KT 9SM SCT019 06/04 A2992 RMK AO2 PK WND
     25032/2301 RAB03E12B22E41 P0001 TSNO=

METAR PAPB 242353Z AUTO 26015KT 9SM FEW017 SCT022 06/04 A2992 RMK AO2 PK
     WND 25032/2301 RAB03E12B22E41 SLP120 P0001 60001 T00560039
     10067 20033 51012 TSNO=

SPECI PAPB 250000Z AUTO 26020G26KT 9SM BKN022 06/03 A2992 RMK AO2 PK WND
     26026/2358 T00560033 TSNO=

SPECI PAPB 250037Z AUTO 25018KT 10SM FEW019 SCT042 BKN080 06/02 A2994
     RMK AO2 PK WND 26029/0022 T00560022 TSNO=

METAR PAPB 250053Z AUTO 26021G25KT 10SM FEW027 FEW039 SCT080 06/03
 A2994 RMK AO2 PK WND 26029/0022 SLP126 T00610028 TSNO=

SPECI PAPB 250109Z AUTO 26017KT 9SM BKN018 BKN027 06/02 A2994 RMK AO2
     T00560017 TSNO=

SPECI PAPB 250146Z AUTO 26019G25KT 10SM FEW015 SCT031 SCT037 06/02 A2995
     RMK AO2 PK WND 26027/0115 RAB15E28 P0001 T00560022 TSNO=

METAR PAPB 250153Z AUTO 26017G25KT 10SM FEW029 SCT035 06/03 A2995 RMK
     AO2 PK WND 26027/0115 RAB15E28 SLP129 P0001 T00560028
     TSNO=

SPECI PAPB 250215Z AUTO 25020KT 10SM SCT018 SCT023 BKN029 06/02 A2995
     RMK AO2 T00560022 TSNO=

PAPB 250222Z AUTO 26022G29KT 8SM FEW018 SCT025 BKN033 04/01 A2995
     RMK AO2 PK WND 25029/0219 T00440011 TSNO=

SPECI PAPB 250244Z AUTO 25018KT 7SM FEW014 SCT020 BKN026 05/02 A2996 RMK
     AO2 PK WND 25029/0219 T00500022 TSNO=


NOAA's National Weather Service
Alaska Aviation Weather Unit
6930 Sand Lake Road
Anchorage, AK 99502-1845
Disclaimer
Credits
Glossary
Privacy Policy
About Us
Career Opportunities
Contact AAWU Internet Services Site last modified: April, 17th 2012